Time;durP1;ratioP1;P1;durP2;ratioP2;P2;SDS_P1;SDS_P2;PMS_P1;PMS_P2;Temp;Humidity;BMP_temperature;BMP_pressure;BME280_temperature;BME280_humidity;BME280_pressure;Samples;Min_cycle;Max_cycle;Signal;HPM_P1;HPM_P2
2022/03/30 00:00:12;;;;;;;41.30;32.80;;;;;;;6.50;82.63;95669.11;108107;1270;31909;-73
2022/03/30 00:03:04;;;;;;;49.70;34.20;;;;;;;6.31;83.27;95688.41;108113;1270;34177;-73
2022/03/30 00:05:35;;;;;;;50.50;36.30;;;;;;;6.32;83.72;95694.52;108031;1270;45843;-73
2022/03/30 00:08:07;;;;;;;50.60;36.10;;;;;;;6.41;83.78;95695.56;108025;1270;46126;-73
2022/03/30 00:10:38;;;;;;;47.90;33.70;;;;;;;6.49;83.53;95698.77;108092;1270;41630;-73
2022/03/30 00:13:09;;;;;;;44.30;34.10;;;;;;;6.53;83.44;95702.11;108036;1270;42044;-73
2022/03/30 00:15:40;;;;;;;47.60;35.00;;;;;;;6.57;83.64;95704.23;108115;1270;40139;-73
2022/03/30 00:18:12;;;;;;;44.30;34.10;;;;;;;6.62;83.57;95704.30;108068;1270;46657;-74
2022/03/30 00:20:43;;;;;;;46.00;35.30;;;;;;;6.66;83.42;95703.98;108046;1270;40043;-73
2022/03/30 00:23:17;;;;;;;50.00;36.00;;;;;;;6.66;83.42;95702.55;108112;1270;32339;-73
2022/03/30 00:25:47;;;;;;;47.30;35.70;;;;;;;6.64;83.27;95699.45;107958;1270;42014;-73
2022/03/30 00:28:19;;;;;;;46.20;34.20;;;;;;;6.63;83.03;95694.58;107919;1271;43886;-73
2022/03/30 00:30:49;;;;;;;51.20;35.90;;;;;;;6.55;82.89;95689.72;108010;1270;34685;-73
2022/03/30 00:33:20;;;;;;;46.30;34.50;;;;;;;6.43;82.96;95686.00;107971;1271;33379;-73
2022/03/30 00:35:51;;;;;;;44.80;34.30;;;;;;;6.42;83.14;95688.12;107827;1271;204079;-73
2022/03/30 00:38:23;;;;;;;48.70;35.30;;;;;;;6.46;83.37;95687.77;107953;1271;44661;-73
2022/03/30 00:40:53;;;;;;;45.30;35.00;;;;;;;6.46;82.93;95680.77;107968;1271;28871;-73
2022/03/30 00:43:25;;;;;;;51.50;36.10;;;;;;;6.42;83.08;95674.80;107990;1271;41500;-73
2022/03/30 00:45:56;;;;;;;46.70;35.00;;;;;;;6.31;82.73;95673.23;107962;1271;32714;-73
2022/03/30 00:48:27;;;;;;;46.50;32.40;;;;;;;6.18;82.87;95672.12;107932;1271;42045;-73
2022/03/30 00:50:58;;;;;;;47.60;35.10;;;;;;;6.06;83.04;95669.83;107893;1270;43691;-73
2022/03/30 00:53:29;;;;;;;51.60;35.50;;;;;;;5.90;83.23;95663.80;108058;1271;27259;-73
2022/03/30 00:56:01;;;;;;;44.50;33.20;;;;;;;5.76;83.53;95660.27;108040;1270;27627;-73
2022/03/30 00:58:34;;;;;;;47.30;35.20;;;;;;;5.66;83.91;95658.85;108006;1270;42856;-73
2022/03/30 01:01:06;;;;;;;48.70;35.90;;;;;;;5.54;84.09;95654.64;108011;1271;40819;-73
2022/03/30 01:03:37;;;;;;;48.50;36.70;;;;;;;5.47;84.33;95648.03;107992;1270;33615;-73
2022/03/30 01:06:08;;;;;;;50.40;36.30;;;;;;;5.43;84.66;95648.00;107984;1270;31021;-73
2022/03/30 01:08:40;;;;;;;50.50;36.50;;;;;;;5.39;84.93;95642.71;108001;1272;32091;-73
2022/03/30 01:11:12;;;;;;;49.60;35.80;;;;;;;5.35;84.93;95645.09;107992;1271;28901;-73
2022/03/30 01:13:43;;;;;;;48.60;35.70;;;;;;;5.35;85.21;95644.73;107986;1270;38915;-73
2022/03/30 01:16:14;;;;;;;50.60;38.00;;;;;;;5.36;85.20;95638.63;108005;1270;31310;-73
2022/03/30 01:18:45;;;;;;;54.40;38.50;;;;;;;5.36;85.33;95632.85;107950;1270;34059;-73
2022/03/30 01:21:16;;;;;;;54.80;38.70;;;;;;;5.39;85.52;95637.03;107941;1270;41524;-73
2022/03/30 01:23:47;;;;;;;52.40;37.50;;;;;;;5.49;85.75;95639.20;107916;1272;41391;-73
2022/03/30 01:26:18;;;;;;;54.70;38.40;;;;;;;5.55;85.88;95640.44;107956;1270;42823;-73
2022/03/30 01:28:49;;;;;;;51.20;38.40;;;;;;;5.60;85.92;95636.89;108112;1270;31113;-73
2022/03/30 01:34:11;;;;;;;53.60;37.50;;;;;;;5.76;85.86;95634.45;108093;1270;38849;-73
2022/03/30 01:36:42;;;;;;;49.70;36.50;;;;;;;5.83;85.88;95630.90;107966;1270;117757;-73
2022/03/30 01:39:13;;;;;;;52.40;37.70;;;;;;;5.86;85.65;95629.86;108098;1270;30825;-73
2022/03/30 01:41:43;;;;;;;50.50;37.70;;;;;;;5.90;85.61;95632.55;108107;1270;40361;-73
2022/03/30 01:44:14;;;;;;;52.70;37.50;;;;;;;5.93;85.45;95629.45;107974;1271;50373;-73
2022/03/30 01:46:45;;;;;;;47.60;35.30;;;;;;;5.94;85.41;95631.64;108148;1270;26327;-73
2022/03/30 01:49:21;;;;;;;53.60;37.70;;;;;;;5.94;85.20;95631.75;108126;1270;36518;-73
2022/03/30 01:51:53;;;;;;;51.50;35.90;;;;;;;5.94;85.12;95628.75;108092;1270;35326;-73
2022/03/30 01:54:26;;;;;;;45.20;33.80;;;;;;;5.95;84.96;95628.64;108116;1269;45413;-73
2022/03/30 01:56:57;;;;;;;48.70;34.90;;;;;;;5.86;84.38;95625.73;107975;1271;31485;-73
2022/03/30 01:59:28;;;;;;;48.50;34.80;;;;;;;5.64;84.15;95620.98;108107;1270;43938;-73
2022/03/30 02:01:59;;;;;;;49.90;35.50;;;;;;;5.48;84.94;95622.85;108111;1270;34608;-73
2022/03/30 02:04:30;;;;;;;51.80;36.40;;;;;;;5.38;85.29;95621.33;108141;1270;40179;-73
2022/03/30 02:07:02;;;;;;;44.30;32.50;;;;;;;5.30;85.84;95615.66;108162;1270;41082;-73
2022/03/30 02:09:33;;;;;;;49.90;36.40;;;;;;;5.24;86.17;95617.44;108171;1270;74809;-73
2022/03/30 02:12:07;;;;;;;51.80;36.30;;;;;;;5.20;86.38;95611.18;108103;1270;43984;-73
2022/03/30 02:14:37;;;;;;;51.80;37.10;;;;;;;5.21;86.60;95608.35;108179;1270;48213;-73
2022/03/30 02:17:08;;;;;;;53.00;35.80;;;;;;;5.22;86.44;95607.98;108131;1270;33615;-72
2022/03/30 02:19:39;;;;;;;52.00;37.20;;;;;;;5.33;86.46;95606.57;108145;1270;29638;-73
2022/03/30 02:22:10;;;;;;;50.60;35.70;;;;;;;5.43;86.49;95604.95;108091;1270;43474;-73
2022/03/30 02:24:41;;;;;;;50.50;35.70;;;;;;;5.50;86.19;95602.75;108071;1270;107832;-73
2022/03/30 02:27:12;;;;;;;50.60;35.40;;;;;;;5.55;85.91;95600.38;108118;1269;40679;-73
2022/03/30 02:29:43;;;;;;;47.40;34.50;;;;;;;5.61;85.86;95601.91;108035;1270;97917;-73
2022/03/30 02:32:14;;;;;;;53.10;36.30;;;;;;;5.68;85.65;95597.37;108006;1270;119139;-73
2022/03/30 02:34:45;;;;;;;48.30;34.40;;;;;;;5.71;85.69;95591.67;108108;1270;49548;-73
2022/03/30 02:37:16;;;;;;;50.00;35.60;;;;;;;5.69;85.59;95589.52;108136;1270;45510;-72
2022/03/30 02:39:48;;;;;;;49.50;36.00;;;;;;;5.64;85.53;95587.03;108109;1269;53483;-73
2022/03/30 02:42:19;;;;;;;47.80;35.40;;;;;;;5.63;85.75;95581.55;108154;1270;43417;-73
2022/03/30 02:44:50;;;;;;;47.90;35.00;;;;;;;5.69;85.89;95582.11;108131;1269;31785;-73
2022/03/30 02:48:17;;;;;;;45.00;34.50;;;;;;;5.74;85.69;95586.80;108122;1270;41183;-73
2022/03/30 02:50:12;;;;;;;46.80;34.10;;;;;;;5.78;85.66;95586.16;108141;1270;36910;-73
2022/03/30 02:52:43;;;;;;;46.90;34.00;;;;;;;5.84;85.63;95585.96;108173;1270;29370;-73
2022/03/30 02:55:15;;;;;;;49.10;34.70;;;;;;;5.88;85.47;95585.35;108099;1270;41707;-73
2022/03/30 02:57:46;;;;;;;47.20;34.60;;;;;;;5.90;85.20;95586.25;108132;1270;43313;-73
2022/03/30 03:00:17;;;;;;;47.00;34.00;;;;;;;5.88;84.95;95586.83;108090;1270;35166;-73
2022/03/30 03:02:47;;;;;;;45.50;33.80;;;;;;;5.80;84.71;95591.20;108086;1270;39492;-73
2022/03/30 03:05:18;;;;;;;44.90;34.20;;;;;;;5.76;85.00;95597.30;108064;1270;31903;-73
2022/03/30 03:07:50;;;;;;;48.80;34.80;;;;;;;5.79;84.98;95597.84;108115;1270;39344;-73
2022/03/30 03:10:21;;;;;;;46.30;32.90;;;;;;;5.83;85.14;95596.39;108133;1270;49452;-73
2022/03/30 03:12:52;;;;;;;47.70;34.30;;;;;;;5.81;85.13;95587.26;108144;1270;40601;-73
2022/03/30 03:15:24;;;;;;;48.20;34.90;;;;;;;5.77;84.77;95583.05;108110;1270;44498;-73
2022/03/30 03:17:55;;;;;;;49.30;36.20;;;;;;;5.68;84.86;95584.80;108062;1270;41291;-73
2022/03/30 03:20:27;;;;;;;50.00;35.90;;;;;;;5.62;84.75;95583.61;108110;1270;44211;-73
2022/03/30 03:23:01;;;;;;;47.70;34.40;;;;;;;5.64;84.70;95582.46;108164;1270;40149;-73
2022/03/30 03:25:34;;;;;;;48.80;33.20;;;;;;;5.61;84.94;95582.30;108046;1271;40941;-73
2022/03/30 03:28:06;;;;;;;45.50;34.50;;;;;;;5.48;84.94;95582.06;108078;1270;32915;-74
2022/03/30 03:30:38;;;;;;;44.30;33.40;;;;;;;5.35;85.15;95586.91;108135;1270;32820;-73
2022/03/30 03:33:10;;;;;;;48.00;33.40;;;;;;;5.31;85.55;95583.02;108054;1270;30691;-73
2022/03/30 03:35:41;;;;;;;44.80;32.30;;;;;;;5.38;85.72;95581.01;108146;1270;38206;-73
2022/03/30 03:38:13;;;;;;;44.50;32.30;;;;;;;5.46;85.63;95584.63;108154;1270;32212;-73
2022/03/30 03:40:44;;;;;;;47.00;32.80;;;;;;;5.52;85.70;95583.47;108017;1271;44183;-73
2022/03/30 03:43:15;;;;;;;49.30;32.10;;;;;;;5.56;85.47;95578.48;108097;1270;36354;-73
2022/03/30 03:45:46;;;;;;;48.40;31.40;;;;;;;5.58;85.15;95577.02;108060;1270;33278;-73
2022/03/30 03:48:18;;;;;;;39.20;27.90;;;;;;;5.61;85.23;95577.30;108103;1270;39907;-73
2022/03/30 03:50:49;;;;;;;42.20;30.10;;;;;;;5.50;84.57;95575.38;108067;1270;43688;-73
2022/03/30 03:53:20;;;;;;;41.10;30.60;;;;;;;5.27;84.55;95574.95;108111;1270;40721;-73
2022/03/30 03:55:51;;;;;;;41.30;31.20;;;;;;;5.11;84.80;95576.76;108114;1269;42642;-73
2022/03/30 03:58:22;;;;;;;39.30;29.70;;;;;;;5.00;85.08;95576.73;108023;1270;42259;-73
2022/03/30 04:00:52;;;;;;;39.70;28.00;;;;;;;4.93;85.33;95573.45;108120;1270;36177;-73
2022/03/30 04:03:23;;;;;;;41.50;29.80;;;;;;;4.87;85.39;95580.23;108058;1270;34384;-73
2022/03/30 04:05:54;;;;;;;41.50;29.40;;;;;;;4.81;85.40;95577.75;108043;1270;44784;-73
2022/03/30 04:08:25;;;;;;;40.00;29.30;;;;;;;4.74;85.33;95578.32;108101;1270;44868;-73
2022/03/30 04:10:56;;;;;;;45.30;30.70;;;;;;;4.67;85.33;95585.55;108095;1270;31670;-73
2022/03/30 04:13:27;;;;;;;39.90;28.00;;;;;;;4.61;85.48;95582.60;108007;1270;101792;-73
2022/03/30 04:15:58;;;;;;;42.30;30.20;;;;;;;4.56;85.76;95583.51;108082;1270;37360;-73
2022/03/30 04:18:29;;;;;;;40.40;29.20;;;;;;;4.50;86.00;95583.48;108101;1270;40786;-73
2022/03/30 04:21:00;;;;;;;40.80;29.10;;;;;;;4.42;86.40;95582.84;108150;1270;31711;-73
2022/03/30 04:23:31;;;;;;;41.20;29.60;;;;;;;4.34;86.57;95587.92;108059;1271;43077;-74
2022/03/30 04:26:02;;;;;;;41.80;30.50;;;;;;;4.30;86.52;95586.52;108188;1270;34239;-73
2022/03/30 04:28:35;;;;;;;44.20;31.30;;;;;;;4.34;86.55;95584.57;108087;1270;41201;-73
2022/03/30 04:31:06;;;;;;;46.90;32.20;;;;;;;4.39;86.27;95580.59;107993;1270;43144;-74
2022/03/30 04:33:37;;;;;;;48.60;31.60;;;;;;;4.43;86.20;95582.73;108146;1270;36104;-73
2022/03/30 04:36:09;;;;;;;47.40;34.40;;;;;;;4.51;86.20;95583.98;108050;1270;43373;-73
2022/03/30 04:38:41;;;;;;;46.80;34.00;;;;;;;4.57;86.38;95583.35;108129;1270;41975;-73
2022/03/30 04:41:12;;;;;;;48.70;35.10;;;;;;;4.63;86.26;95580.75;108059;1270;42163;-73
2022/03/30 04:43:43;;;;;;;44.20;32.30;;;;;;;4.65;86.19;95579.09;108009;1270;41347;-73
2022/03/30 04:46:14;;;;;;;43.70;32.30;;;;;;;4.66;86.06;95576.67;108143;1270;41702;-73
2022/03/30 04:48:46;;;;;;;41.50;30.20;;;;;;;4.71;86.24;95582.79;108026;1270;47161;-73
2022/03/30 04:51:17;;;;;;;41.10;29.40;;;;;;;4.76;85.99;95579.63;108089;1270;41128;-73
2022/03/30 04:53:48;;;;;;;40.90;28.70;;;;;;;4.81;85.80;95578.95;108066;1270;40488;-73
2022/03/30 04:56:19;;;;;;;43.30;30.50;;;;;;;4.82;85.68;95579.75;108039;1270;38625;-73
2022/03/30 04:58:52;;;;;;;40.90;27.60;;;;;;;4.84;85.51;95579.73;108027;1270;50517;-73
2022/03/30 05:01:22;;;;;;;42.70;27.90;;;;;;;4.89;85.60;95582.28;108104;1270;33670;-73
2022/03/30 05:03:53;;;;;;;46.10;32.40;;;;;;;4.87;85.37;95584.02;108055;1270;39239;-73
2022/03/30 05:06:24;;;;;;;48.00;34.10;;;;;;;4.78;85.40;95580.52;107993;1270;47357;-73
2022/03/30 05:08:55;;;;;;;48.20;35.20;;;;;;;4.74;85.78;95579.48;108007;1270;45188;-73
2022/03/30 05:11:26;;;;;;;46.30;32.30;;;;;;;4.84;85.97;95577.10;108067;1268;32146;-73
2022/03/30 05:13:57;;;;;;;42.40;31.10;;;;;;;4.94;86.09;95579.81;108054;1270;43343;-73
2022/03/30 05:16:29;;;;;;;42.00;30.30;;;;;;;4.92;85.85;95579.48;108093;1270;28176;-73
2022/03/30 05:19:00;;;;;;;40.50;29.80;;;;;;;4.85;85.83;95580.35;108089;1270;30061;-73
2022/03/30 05:21:31;;;;;;;44.00;29.10;;;;;;;4.80;85.75;95575.96;108049;1270;52203;-73
2022/03/30 05:24:02;;;;;;;39.90;27.90;;;;;;;4.83;85.97;95579.73;108027;1270;45611;-73
2022/03/30 05:26:33;;;;;;;39.40;28.20;;;;;;;4.82;86.05;95577.69;108140;1270;33197;-73
2022/03/30 05:29:05;;;;;;;42.20;28.80;;;;;;;4.77;85.98;95578.36;108099;1270;38548;-75
2022/03/30 05:31:36;;;;;;;43.90;29.60;;;;;;;4.79;86.04;95579.73;108064;1270;41247;-74
2022/03/30 05:34:07;;;;;;;41.40;29.60;;;;;;;4.86;86.01;95580.82;107858;1273;41399;-73
2022/03/30 05:36:38;;;;;;;48.90;33.20;;;;;;;4.86;86.08;95584.29;108090;1270;45408;-73
2022/03/30 05:39:09;;;;;;;38.60;27.90;;;;;;;4.85;86.00;95585.91;108116;1270;35212;-73
2022/03/30 05:41:40;;;;;;;42.60;29.40;;;;;;;4.85;85.97;95587.39;108116;1270;36423;-73
2022/03/30 05:44:11;;;;;;;41.50;28.90;;;;;;;4.86;86.02;95585.96;108026;1270;32483;-73
2022/03/30 05:46:43;;;;;;;40.40;26.00;;;;;;;4.89;86.18;95593.14;108024;1270;39470;-73
2022/03/30 05:49:13;;;;;;;36.80;25.10;;;;;;;4.94;86.07;95588.42;108092;1270;45500;-73
2022/03/30 05:51:45;;;;;;;36.40;26.00;;;;;;;4.98;85.59;95585.56;108102;1270;52147;-73
2022/03/30 05:54:16;;;;;;;34.90;24.90;;;;;;;5.05;85.31;95587.34;108119;1270;39601;-73
2022/03/30 05:57:03;;;;;;;34.20;24.50;;;;;;;5.14;85.12;95587.30;108116;1270;32926;-72
2022/03/30 05:59:36;;;;;;;34.60;22.70;;;;;;;5.24;85.05;95587.91;108033;1270;39784;-73
2022/03/30 06:02:08;;;;;;;32.40;22.30;;;;;;;5.28;84.83;95584.56;107974;1270;50071;-73
2022/03/30 06:04:41;;;;;;;34.50;23.30;;;;;;;5.23;84.50;95585.17;108064;1271;29798;-73
2022/03/30 06:07:12;;;;;;;33.10;23.00;;;;;;;5.22;84.20;95581.70;108151;1270;35079;-73
2022/03/30 06:09:43;;;;;;;33.50;23.70;;;;;;;5.28;84.27;95581.73;108101;1270;40239;-72
2022/03/30 06:12:15;;;;;;;34.80;23.20;;;;;;;5.29;84.25;95583.51;108113;1270;34263;-73
2022/03/30 06:14:46;;;;;;;32.30;23.70;;;;;;;5.29;84.06;95583.66;108012;1270;37828;-73
2022/03/30 06:17:19;;;;;;;29.40;22.10;;;;;;;5.38;84.17;95581.84;108101;1270;41378;-73
2022/03/30 06:19:51;;;;;;;32.90;23.80;;;;;;;5.44;83.94;95580.02;108088;1270;49467;-73
2022/03/30 06:22:25;;;;;;;37.50;26.50;;;;;;;5.48;83.60;95578.37;108090;1270;46162;-73
2022/03/30 06:24:57;;;;;;;35.10;25.10;;;;;;;5.51;83.57;95577.90;108160;1270;31745;-73
2022/03/30 06:27:28;;;;;;;34.80;24.40;;;;;;;5.56;83.53;95580.60;108060;1270;31676;-73
2022/03/30 06:29:59;;;;;;;42.90;26.60;;;;;;;5.59;83.31;95583.62;108046;1270;47882;-73
2022/03/30 06:32:30;;;;;;;33.20;26.10;;;;;;;5.59;83.08;95582.16;108135;1270;46079;-72
2022/03/30 06:35:01;;;;;;;39.00;26.10;;;;;;;5.62;83.03;95579.66;108147;1270;48381;-73
2022/03/30 06:37:33;;;;;;;38.40;26.70;;;;;;;5.70;83.08;95577.67;108154;1270;31094;-72
2022/03/30 06:40:05;;;;;;;35.60;24.70;;;;;;;5.81;83.14;95576.14;108138;1270;40178;-73
2022/03/30 06:42:37;;;;;;;33.90;23.80;;;;;;;5.90;82.87;95575.26;108159;1270;67210;-73
2022/03/30 06:45:10;;;;;;;34.10;23.90;;;;;;;6.00;82.71;95573.36;108083;1271;40692;-73
2022/03/30 06:47:42;;;;;;;29.50;22.20;;;;;;;6.08;82.57;95571.38;108115;1270;44588;-73
2022/03/30 06:50:13;;;;;;;34.20;24.20;;;;;;;6.17;82.85;95571.02;108084;1271;30653;-73
2022/03/30 06:52:44;;;;;;;29.70;21.30;;;;;;;6.26;82.82;95570.75;108068;1270;43843;-73
2022/03/30 06:55:16;;;;;;;31.90;20.90;;;;;;;6.36;82.14;95571.56;108071;1271;42197;-73
2022/03/30 06:57:47;;;;;;;31.30;20.90;;;;;;;6.42;81.53;95572.98;108005;1270;46066;-73
2022/03/30 07:00:18;;;;;;;31.00;21.70;;;;;;;6.51;80.84;95572.64;108066;1270;30311;-73
2022/03/30 07:02:49;;;;;;;33.20;23.70;;;;;;;6.59;80.24;95577.98;107988;1270;40920;-73
2022/03/30 07:05:21;;;;;;;40.10;26.30;;;;;;;6.67;79.76;95577.86;108110;1270;43572;-73
2022/03/30 07:10:40;;;;;;;34.70;24.60;;;;;;;6.86;79.35;95573.83;108045;1271;44337;-73
2022/03/30 07:13:11;;;;;;;34.70;24.20;;;;;;;7.02;79.25;95566.27;108012;1271;32086;-73
2022/03/30 07:15:42;;;;;;;37.10;24.40;;;;;;;7.23;78.97;95566.61;108101;1270;41396;-73
2022/03/30 07:18:13;;;;;;;37.50;25.60;;;;;;;7.55;78.73;95572.77;108086;1270;41745;-73
2022/03/30 07:20:44;;;;;;;32.90;23.90;;;;;;;7.83;78.45;95568.06;108180;1268;34367;-73
2022/03/30 07:23:16;;;;;;;35.90;24.60;;;;;;;7.96;77.19;95563.89;108094;1270;50188;-73
2022/03/30 07:25:47;;;;;;;34.00;26.00;;;;;;;8.06;76.28;95566.39;108084;1271;30224;-73
2022/03/30 07:28:21;;;;;;;34.90;25.50;;;;;;;8.11;75.69;95567.99;108048;1270;31806;-73
2022/03/30 07:30:53;;;;;;;34.90;24.70;;;;;;;8.04;74.98;95565.48;108123;1270;41143;-73
2022/03/30 07:33:29;;;;;;;45.20;32.20;;;;;;;8.24;75.15;95565.48;108069;1270;41268;-73
2022/03/30 07:36:01;;;;;;;38.50;26.50;;;;;;;8.50;75.13;95565.73;108126;1267;71064;-73
2022/03/30 07:38:34;;;;;;;38.90;25.90;;;;;;;8.63;73.60;95564.92;108175;1270;30266;-73
2022/03/30 07:41:06;;;;;;;35.00;25.90;;;;;;;8.60;73.51;95568.09;108064;1270;37303;-74
2022/03/30 07:43:37;;;;;;;40.90;30.10;;;;;;;8.68;73.63;95570.95;108062;1270;35528;-74
2022/03/30 07:46:11;;;;;;;40.00;28.00;;;;;;;8.93;73.59;95577.16;107990;1270;49026;-73
2022/03/30 07:48:42;;;;;;;35.50;26.60;;;;;;;9.24;73.20;95576.27;108085;1270;33810;-73
2022/03/30 07:51:13;;;;;;;35.10;26.30;;;;;;;9.23;71.75;95572.48;107975;1271;44284;-73
2022/03/30 07:53:44;;;;;;;39.10;28.00;;;;;;;9.24;71.25;95571.56;108002;1271;42310;-74
2022/03/30 07:56:17;;;;;;;36.40;28.50;;;;;;;9.29;70.53;95567.52;108037;1270;34672;-72
2022/03/30 07:58:48;;;;;;;39.20;31.00;;;;;;;9.66;70.79;95567.10;108064;1270;30136;-73
2022/03/30 08:01:19;;;;;;;38.30;30.40;;;;;;;10.77;71.07;95564.92;108023;1270;34618;-73
2022/03/30 08:03:50;;;;;;;35.60;28.70;;;;;;;12.08;70.28;95560.07;108037;1271;40652;-73
2022/03/30 08:06:21;;;;;;;36.30;29.80;;;;;;;12.58;67.56;95559.88;108033;1270;47100;-73
2022/03/30 08:08:52;;;;;;;35.50;29.60;;;;;;;12.43;65.95;95557.75;108074;1270;42565;-74
2022/03/30 08:11:23;;;;;;;37.00;31.00;;;;;;;12.96;66.24;95560.52;108069;1271;34925;-74
2022/03/30 08:13:56;;;;;;;34.80;29.70;;;;;;;13.99;65.37;95563.47;107921;1271;58427;-73
2022/03/30 08:16:27;;;;;;;40.40;31.30;;;;;;;14.38;61.90;95562.69;108103;1270;47389;-73
2022/03/30 08:18:58;;;;;;;40.30;31.20;;;;;;;14.35;60.96;95562.50;108112;1270;33000;-73
2022/03/30 08:24:19;;;;;;;36.00;30.20;;;;;;;15.09;59.41;95561.65;108018;1270;39687;-73
2022/03/30 08:26:50;;;;;;;36.50;31.40;;;;;;;14.20;56.84;95564.92;108090;1270;31173;-73
2022/03/30 08:29:21;;;;;;;30.90;27.00;;;;;;;13.62;58.42;95569.26;108058;1270;47357;-74
2022/03/30 08:31:52;;;;;;;36.60;31.30;;;;;;;13.40;56.53;95565.60;107906;1273;46614;-74
2022/03/30 08:34:23;;;;;;;38.40;30.10;;;;;;;12.85;57.20;95559.29;108129;1270;30351;-74
2022/03/30 08:36:54;;;;;;;36.70;30.90;;;;;;;12.72;58.56;95555.91;108091;1269;42367;-74
2022/03/30 08:39:25;;;;;;;35.70;29.50;;;;;;;12.46;57.67;95555.95;108099;1269;42169;-73
2022/03/30 08:41:57;;;;;;;36.90;30.10;;;;;;;11.71;57.28;95557.17;108091;1271;33926;-73
2022/03/30 08:44:28;;;;;;;37.50;30.40;;;;;;;11.03;57.80;95555.79;108061;1271;32676;-73
2022/03/30 08:46:58;;;;;;;40.20;31.10;;;;;;;10.86;58.95;95555.56;108031;1271;43952;-73
2022/03/30 08:49:33;;;;;;;38.80;29.80;;;;;;;11.08;60.09;95555.02;108096;1271;44194;-73
2022/03/30 08:52:07;;;;;;;36.20;29.40;;;;;;;11.78;61.17;95556.32;108074;1271;34470;-74
2022/03/30 08:54:41;;;;;;;34.40;28.30;;;;;;;12.65;60.59;95549.15;108051;1270;42303;-73
2022/03/30 08:57:13;;;;;;;35.30;28.90;;;;;;;13.55;59.91;95547.38;107876;1273;30454;-73
2022/03/30 08:59:58;;;;;;;36.10;29.10;;;;;;;14.07;57.79;95542.69;108014;1271;31501;-74
2022/03/30 09:02:38;;;;;;;35.40;28.50;;;;;;;14.33;57.03;95540.40;108167;1271;42528;-73
2022/03/30 09:05:20;;;;;;;37.10;30.50;;;;;;;14.94;56.08;95534.02;108042;1271;31184;-74
2022/03/30 09:07:54;;;;;;;35.80;28.00;;;;;;;14.77;54.86;95537.29;108121;1271;85081;-74
2022/03/30 09:10:31;;;;;;;37.20;30.30;;;;;;;14.72;54.24;95533.70;108080;1270;45227;-74
2022/03/30 09:13:03;;;;;;;34.30;27.80;;;;;;;14.54;54.27;95539.57;108068;1270;33922;-73
2022/03/30 09:15:38;;;;;;;34.20;27.80;;;;;;;14.79;54.60;95531.73;108059;1271;34232;-74
2022/03/30 09:18:11;;;;;;;34.40;27.40;;;;;;;14.66;53.74;95528.77;107974;1270;44086;-75
2022/03/30 09:20:44;;;;;;;35.10;29.00;;;;;;;14.04;52.55;95534.64;108052;1271;40985;-74
2022/03/30 09:23:17;;;;;;;36.00;28.10;;;;;;;13.50;53.80;95538.83;108012;1270;47921;-74
2022/03/30 09:25:49;;;;;;;37.80;28.50;;;;;;;13.58;54.44;95535.39;108059;1270;33368;-74
2022/03/30 09:28:23;;;;;;;38.60;30.30;;;;;;;13.37;54.22;95533.75;108015;1270;84316;-74
2022/03/30 09:30:55;;;;;;;37.60;27.80;;;;;;;13.39;55.34;95530.27;108020;1271;31776;-74
2022/03/30 09:33:26;;;;;;;38.10;28.10;;;;;;;13.55;55.10;95526.54;108048;1270;37753;-74
2022/03/30 09:35:57;;;;;;;35.50;28.50;;;;;;;13.29;54.57;95524.98;108047;1270;34919;-74
2022/03/30 09:38:37;;;;;;;37.40;28.30;;;;;;;12.90;54.38;95521.77;108054;1271;44982;-74
2022/03/30 09:41:10;;;;;;;38.10;29.90;;;;;;;12.34;54.36;95514.02;107991;1271;46775;-74
2022/03/30 09:43:41;;;;;;;36.80;28.10;;;;;;;12.33;55.50;95511.23;108016;1271;29224;-74
2022/03/30 09:46:15;;;;;;;38.90;28.30;;;;;;;12.44;55.57;95505.84;108071;1270;40448;-74
2022/03/30 09:48:52;;;;;;;36.30;27.10;;;;;;;12.30;55.26;95504.11;108081;1271;45615;-74
2022/03/30 09:51:27;;;;;;;40.70;30.80;;;;;;;12.20;55.54;95500.83;107918;1271;43626;-74
2022/03/30 09:53:58;;;;;;;39.70;30.30;;;;;;;12.10;56.06;95497.36;107967;1271;31621;-74
2022/03/30 09:56:32;;;;;;;40.50;30.20;;;;;;;12.01;56.35;95496.12;108014;1271;32363;-74
2022/03/30 09:59:05;;;;;;;38.20;29.90;;;;;;;12.20;56.69;95492.75;108072;1271;30793;-74
2022/03/30 10:01:37;;;;;;;37.70;29.70;;;;;;;12.29;56.39;95489.86;108004;1271;36544;-75
2022/03/30 10:04:10;;;;;;;34.00;26.30;;;;;;;12.37;57.02;95486.17;107999;1271;44579;-74
2022/03/30 10:06:42;;;;;;;37.40;29.10;;;;;;;12.54;55.90;95480.52;107960;1271;42294;-74
2022/03/30 10:09:15;;;;;;;34.50;26.70;;;;;;;12.50;56.52;95481.95;107925;1271;62107;-74
2022/03/30 10:11:47;;;;;;;35.00;27.10;;;;;;;12.75;56.31;95480.44;108030;1270;38110;-74
2022/03/30 10:14:19;;;;;;;37.10;29.50;;;;;;;12.87;55.63;95475.27;108063;1271;41998;-75
2022/03/30 10:16:50;;;;;;;39.10;28.80;;;;;;;12.69;55.21;95470.75;107970;1271;83137;-74
2022/03/30 10:19:22;;;;;;;37.20;29.60;;;;;;;12.52;56.21;95464.77;108043;1270;52157;-74
2022/03/30 10:22:04;;;;;;;37.60;29.00;;;;;;;12.81;56.68;95463.51;108021;1270;47101;-74
2022/03/30 10:24:49;;;;;;;37.70;28.30;;;;;;;12.85;55.40;95463.43;108061;1270;32095;-75
2022/03/30 10:27:31;;;;;;;37.20;27.50;;;;;;;12.39;55.03;95458.02;108076;1270;36745;-75
2022/03/30 10:30:06;;;;;;;36.00;27.40;;;;;;;12.14;55.52;95455.02;108189;1271;32005;-74
2022/03/30 10:32:38;;;;;;;35.00;27.50;;;;;;;12.08;55.77;95458.44;107986;1270;42288;-75
2022/03/30 10:35:12;;;;;;;34.90;27.20;;;;;;;12.04;55.73;95456.23;107958;1271;31008;-75
2022/03/30 10:37:46;;;;;;;37.10;27.60;;;;;;;12.18;56.13;95457.69;108005;1271;43189;-75
2022/03/30 10:40:23;;;;;;;38.30;28.40;;;;;;;12.37;56.12;95452.33;108041;1270;42567;-75
2022/03/30 10:43:27;;;;;;;36.80;27.80;;;;;;;12.43;56.09;95450.73;108026;1270;36516;-74
2022/03/30 10:46:04;;;;;;;39.20;28.40;;;;;;;12.88;56.71;95445.33;108025;1269;53778;-74
2022/03/30 10:48:41;;;;;;;35.00;26.90;;;;;;;13.28;56.50;95446.55;108032;1271;30743;-74
2022/03/30 10:51:20;;;;;;;33.10;26.30;;;;;;;13.49;55.47;95443.06;107951;1271;94769;-75
2022/03/30 10:53:52;;;;;;;37.40;28.40;;;;;;;13.37;54.25;95439.21;108104;1271;70265;-75
2022/03/30 10:56:36;;;;;;;36.00;27.90;;;;;;;13.21;54.46;95437.34;108054;1270;40137;-75
2022/03/30 10:59:17;;;;;;;39.50;28.80;;;;;;;13.11;53.87;95437.38;108044;1270;35633;-75
2022/03/30 11:01:49;;;;;;;37.50;29.50;;;;;;;12.89;54.02;95434.09;108035;1270;36607;-75
2022/03/30 11:04:26;;;;;;;59.10;47.10;;;;;;;12.95;54.86;95434.17;108032;1270;43426;-74
2022/03/30 11:07:39;;;;;;;50.90;40.60;;;;;;;13.17;54.89;95432.01;108003;1271;33737;-74
2022/03/30 11:10:31;;;;;;;33.70;27.00;;;;;;;13.24;54.24;95431.19;107838;1271;67794;-75
2022/03/30 11:13:11;;;;;;;35.70;27.00;;;;;;;12.86;53.67;95430.35;108042;1270;34782;-74
2022/03/30 11:16:11;;;;;;;37.70;27.40;;;;;;;12.40;54.03;95432.77;108022;1270;34521;-74
2022/03/30 11:19:04;;;;;;;34.70;27.80;;;;;;;12.05;54.44;95430.80;107958;1270;42472;-74
2022/03/30 11:21:35;;;;;;;34.30;25.90;;;;;;;12.03;55.32;95423.89;108054;1270;32824;-75
2022/03/30 11:24:19;;;;;;;34.80;26.10;;;;;;;12.05;55.25;95419.95;108028;1269;35751;-75
2022/03/30 11:27:22;;;;;;;35.50;26.10;;;;;;;12.08;55.59;95419.09;107986;1270;37417;-74
2022/03/30 11:30:03;;;;;;;38.40;26.20;;;;;;;12.11;55.32;95416.33;107985;1270;37671;-74
2022/03/30 11:33:10;;;;;;;34.70;26.80;;;;;;;12.15;55.34;95414.06;108031;1270;41032;-74
2022/03/30 11:35:43;;;;;;;30.80;24.40;;;;;;;12.24;55.52;95410.50;107988;1270;33849;-75
2022/03/30 11:38:28;;;;;;;34.80;25.20;;;;;;;12.39;55.65;95410.56;108070;1270;30826;-74
2022/03/30 11:41:06;;;;;;;34.60;25.30;;;;;;;12.53;55.51;95409.65;107982;1270;45663;-74
2022/03/30 11:46:33;;;;;;;35.10;27.10;;;;;;;12.59;54.94;95401.17;107894;1273;33741;-74
2022/03/30 11:49:05;;;;;;;34.30;25.60;;;;;;;12.48;54.91;95400.36;108122;1270;34585;-75
2022/03/30 11:51:37;;;;;;;34.60;27.00;;;;;;;12.41;54.67;95399.09;107989;1270;36718;-75